sensor_id;sensor_type;location;lat;lon;timestamp;pressure;altitude;pressure_sealevel;temperature;humidity
72285;BME280;60220;53.552;10.092;2023-05-19T00:02:15;102639.31;;;9.84;62.02
72285;BME280;60220;53.552;10.092;2023-05-19T00:04:45;102643.97;;;9.18;64.52
72285;BME280;60220;53.552;10.092;2023-05-19T00:07:17;102645.69;;;9.55;63.39
72285;BME280;60220;53.552;10.092;2023-05-19T00:09:44;102643.44;;;9.71;63.70
72285;BME280;60220;53.552;10.092;2023-05-19T00:12:14;102644.75;;;9.51;63.89
72285;BME280;60220;53.552;10.092;2023-05-19T00:14:41;102642.13;;;9.52;63.85
72285;BME280;60220;53.552;10.092;2023-05-19T00:17:08;102654.91;;;9.37;63.79
72285;BME280;60220;53.552;10.092;2023-05-19T00:19:35;102640.69;;;9.65;62.33
72285;BME280;60220;53.552;10.092;2023-05-19T00:22:02;102647.88;;;9.35;62.66
72285;BME280;60220;53.552;10.092;2023-05-19T00:24:29;102644.50;;;9.81;62.56
72285;BME280;60220;53.552;10.092;2023-05-19T00:26:56;102639.13;;;9.76;62.10
72285;BME280;60220;53.552;10.092;2023-05-19T00:29:24;102639.22;;;9.39;63.99
72285;BME280;60220;53.552;10.092;2023-05-19T00:31:50;102643.84;;;9.92;62.64
72285;BME280;60220;53.552;10.092;2023-05-19T00:34:19;102644.72;;;9.12;63.96
72285;BME280;60220;53.552;10.092;2023-05-19T00:36:46;102636.34;;;9.67;62.36
72285;BME280;60220;53.552;10.092;2023-05-19T00:39:12;102631.00;;;9.61;62.25
72285;BME280;60220;53.552;10.092;2023-05-19T00:41:39;102635.28;;;9.19;64.28
72285;BME280;60220;53.552;10.092;2023-05-19T00:44:08;102633.50;;;9.18;64.26
72285;BME280;60220;53.552;10.092;2023-05-19T00:46:36;102633.44;;;9.15;63.40
72285;BME280;60220;53.552;10.092;2023-05-19T00:49:03;102633.34;;;9.12;64.39
72285;BME280;60220;53.552;10.092;2023-05-19T00:51:30;102631.88;;;9.23;63.36
72285;BME280;60220;53.552;10.092;2023-05-19T00:53:57;102623.69;;;9.09;64.41
72285;BME280;60220;53.552;10.092;2023-05-19T00:56:23;102628.00;;;9.07;64.45
72285;BME280;60220;53.552;10.092;2023-05-19T00:58:50;102619.50;;;9.16;64.29
72285;BME280;60220;53.552;10.092;2023-05-19T01:01:17;102627.09;;;9.05;64.02
72285;BME280;60220;53.552;10.092;2023-05-19T01:03:47;102627.16;;;8.71;66.08
72285;BME280;60220;53.552;10.092;2023-05-19T01:06:16;102627.94;;;8.67;66.43
72285;BME280;60220;53.552;10.092;2023-05-19T01:08:45;102635.56;;;9.31;64.44
72285;BME280;60220;53.552;10.092;2023-05-19T01:11:11;102634.59;;;9.27;63.66
72285;BME280;60220;53.552;10.092;2023-05-19T01:13:40;102635.69;;;8.99;65.34
72285;BME280;60220;53.552;10.092;2023-05-19T01:16:11;102631.31;;;8.98;65.70
72285;BME280;60220;53.552;10.092;2023-05-19T01:18:44;102633.28;;;8.71;66.69
72285;BME280;60220;53.552;10.092;2023-05-19T01:21:48;102635.19;;;8.78;66.28
72285;BME280;60220;53.552;10.092;2023-05-19T01:24:44;102632.50;;;9.50;64.41
72285;BME280;60220;53.552;10.092;2023-05-19T01:27:33;102627.72;;;9.71;62.32
72285;BME280;60220;53.552;10.092;2023-05-19T01:30:27;102633.84;;;9.33;63.07
72285;BME280;60220;53.552;10.092;2023-05-19T01:32:58;102634.81;;;9.78;62.87
72285;BME280;60220;53.552;10.092;2023-05-19T01:35:26;102632.41;;;9.08;64.28
72285;BME280;60220;53.552;10.092;2023-05-19T01:37:55;102635.22;;;9.16;64.13
72285;BME280;60220;53.552;10.092;2023-05-19T01:40:23;102641.75;;;9.34;63.36
72285;BME280;60220;53.552;10.092;2023-05-19T01:42:53;102636.94;;;9.15;63.29
72285;BME280;60220;53.552;10.092;2023-05-19T01:45:22;102641.34;;;9.16;64.74
72285;BME280;60220;53.552;10.092;2023-05-19T01:47:53;102637.00;;;8.82;65.31
72285;BME280;60220;53.552;10.092;2023-05-19T01:50:20;102644.25;;;8.92;66.58
72285;BME280;60220;53.552;10.092;2023-05-19T01:52:49;102649.22;;;8.46;67.80
72285;BME280;60220;53.552;10.092;2023-05-19T01:55:16;102643.63;;;8.67;66.87
72285;BME280;60220;53.552;10.092;2023-05-19T01:57:48;102649.75;;;8.34;68.41
72285;BME280;60220;53.552;10.092;2023-05-19T02:00:24;102646.75;;;8.86;66.52
72285;BME280;60220;53.552;10.092;2023-05-19T02:03:03;102649.16;;;8.79;66.40
72285;BME280;60220;53.552;10.092;2023-05-19T02:05:37;102649.78;;;8.69;67.33
72285;BME280;60220;53.552;10.092;2023-05-19T02:08:11;102647.13;;;9.01;66.06
72285;BME280;60220;53.552;10.092;2023-05-19T02:10:44;102648.53;;;8.89;65.53
72285;BME280;60220;53.552;10.092;2023-05-19T02:13:17;102652.97;;;8.91;64.79
72285;BME280;60220;53.552;10.092;2023-05-19T02:15:47;102643.88;;;8.77;66.26
72285;BME280;60220;53.552;10.092;2023-05-19T02:18:15;102646.84;;;8.91;66.27
72285;BME280;60220;53.552;10.092;2023-05-19T02:20:44;102647.03;;;8.98;65.70
72285;BME280;60220;53.552;10.092;2023-05-19T02:23:11;102640.59;;;9.61;63.96
72285;BME280;60220;53.552;10.092;2023-05-19T02:25:37;102641.06;;;9.43;63.88
72285;BME280;60220;53.552;10.092;2023-05-19T02:28:04;102638.38;;;9.02;65.46
72285;BME280;60220;53.552;10.092;2023-05-19T02:30:31;102634.31;;;9.15;65.45
72285;BME280;60220;53.552;10.092;2023-05-19T02:33:02;102635.41;;;9.25;64.63
72285;BME280;60220;53.552;10.092;2023-05-19T02:35:30;102634.72;;;9.33;65.23
72285;BME280;60220;53.552;10.092;2023-05-19T02:38:00;102631.72;;;9.17;65.75
72285;BME280;60220;53.552;10.092;2023-05-19T02:40:29;102630.41;;;8.96;66.16
72285;BME280;60220;53.552;10.092;2023-05-19T02:42:55;102624.66;;;9.13;65.27
72285;BME280;60220;53.552;10.092;2023-05-19T02:45:22;102621.25;;;9.56;63.98
72285;BME280;60220;53.552;10.092;2023-05-19T02:47:48;102631.31;;;9.37;64.55
72285;BME280;60220;53.552;10.092;2023-05-19T02:50:16;102625.34;;;9.43;64.82
72285;BME280;60220;53.552;10.092;2023-05-19T02:52:43;102625.34;;;9.43;64.76
72285;BME280;60220;53.552;10.092;2023-05-19T02:55:09;102625.75;;;9.63;63.92
72285;BME280;60220;53.552;10.092;2023-05-19T02:57:41;102615.03;;;9.94;63.96
72285;BME280;60220;53.552;10.092;2023-05-19T03:00:08;102622.88;;;9.92;62.92
72285;BME280;60220;53.552;10.092;2023-05-19T03:02:35;102624.09;;;9.66;62.98
72285;BME280;60220;53.552;10.092;2023-05-19T03:05:02;102620.78;;;9.76;63.13
72285;BME280;60220;53.552;10.092;2023-05-19T03:07:30;102608.84;;;9.90;62.61
72285;BME280;60220;53.552;10.092;2023-05-19T03:09:58;102615.34;;;9.67;63.79
72285;BME280;60220;53.552;10.092;2023-05-19T03:12:28;102609.00;;;9.55;64.24
72285;BME280;60220;53.552;10.092;2023-05-19T03:14:54;102610.41;;;9.82;63.32
72285;BME280;60220;53.552;10.092;2023-05-19T03:17:21;102615.53;;;9.75;64.38
72285;BME280;60220;53.552;10.092;2023-05-19T03:19:47;102617.44;;;9.83;64.38
72285;BME280;60220;53.552;10.092;2023-05-19T03:22:15;102612.91;;;9.75;64.68
72285;BME280;60220;53.552;10.092;2023-05-19T03:24:44;102615.69;;;9.42;65.49
72285;BME280;60220;53.552;10.092;2023-05-19T03:27:11;102609.22;;;9.65;65.57
72285;BME280;60220;53.552;10.092;2023-05-19T03:29:37;102611.97;;;9.71;64.70
72285;BME280;60220;53.552;10.092;2023-05-19T03:32:04;102606.19;;;9.47;65.97
72285;BME280;60220;53.552;10.092;2023-05-19T03:34:31;102598.22;;;9.41;65.64
72285;BME280;60220;53.552;10.092;2023-05-19T03:36:58;102610.63;;;9.49;65.75
72285;BME280;60220;53.552;10.092;2023-05-19T03:39:27;102606.31;;;9.53;66.59
72285;BME280;60220;53.552;10.092;2023-05-19T03:41:55;102604.63;;;9.57;65.48
72285;BME280;60220;53.552;10.092;2023-05-19T03:44:21;102609.13;;;9.62;65.14
72285;BME280;60220;53.552;10.092;2023-05-19T03:46:48;102611.13;;;9.74;64.92
72285;BME280;60220;53.552;10.092;2023-05-19T03:49:15;102611.75;;;10.52;63.29
72285;BME280;60220;53.552;10.092;2023-05-19T03:51:43;102612.16;;;9.80;64.52
72285;BME280;60220;53.552;10.092;2023-05-19T03:54:11;102618.19;;;9.78;65.02
72285;BME280;60220;53.552;10.092;2023-05-19T03:56:38;102618.19;;;10.20;64.97
72285;BME280;60220;53.552;10.092;2023-05-19T03:59:07;102618.34;;;10.29;64.33
72285;BME280;60220;53.552;10.092;2023-05-19T04:01:35;102620.50;;;10.05;64.21
72285;BME280;60220;53.552;10.092;2023-05-19T04:04:04;102623.28;;;10.14;64.69
72285;BME280;60220;53.552;10.092;2023-05-19T04:06:30;102617.09;;;10.10;64.48
72285;BME280;60220;53.552;10.092;2023-05-19T04:08:58;102626.31;;;9.48;66.13
72285;BME280;60220;53.552;10.092;2023-05-19T04:11:27;102625.09;;;9.73;66.20
72285;BME280;60220;53.552;10.092;2023-05-19T04:13:54;102628.88;;;9.45;67.16
72285;BME280;60220;53.552;10.092;2023-05-19T04:16:22;102626.72;;;9.68;66.90
72285;BME280;60220;53.552;10.092;2023-05-19T04:18:48;102631.00;;;10.05;65.49
72285;BME280;60220;53.552;10.092;2023-05-19T04:21:17;102626.44;;;10.40;64.67
72285;BME280;60220;53.552;10.092;2023-05-19T04:23:46;102630.38;;;10.18;65.86
72285;BME280;60220;53.552;10.092;2023-05-19T04:26:13;102633.53;;;10.45;64.79
72285;BME280;60220;53.552;10.092;2023-05-19T04:28:40;102632.88;;;10.58;64.72
72285;BME280;60220;53.552;10.092;2023-05-19T04:31:08;102631.47;;;10.78;63.54
72285;BME280;60220;53.552;10.092;2023-05-19T04:33:38;102633.47;;;10.95;62.40
72285;BME280;60220;53.552;10.092;2023-05-19T04:36:05;102637.38;;;11.21;62.57
72285;BME280;60220;53.552;10.092;2023-05-19T04:38:35;102636.38;;;11.13;62.28
72285;BME280;60220;53.552;10.092;2023-05-19T04:41:06;102634.50;;;11.06;62.60
72285;BME280;60220;53.552;10.092;2023-05-19T04:43:35;102632.22;;;10.70;63.46
72285;BME280;60220;53.552;10.092;2023-05-19T04:46:08;102636.47;;;11.19;62.06
72285;BME280;60220;53.552;10.092;2023-05-19T04:48:38;102636.97;;;10.94;62.56
72285;BME280;60220;53.552;10.092;2023-05-19T04:51:07;102646.19;;;10.69;63.27
72285;BME280;60220;53.552;10.092;2023-05-19T04:53:36;102636.19;;;10.48;65.07
72285;BME280;60220;53.552;10.092;2023-05-19T04:56:04;102640.28;;;10.32;65.83
72285;BME280;60220;53.552;10.092;2023-05-19T04:58:31;102630.53;;;10.75;64.86
72285;BME280;60220;53.552;10.092;2023-05-19T05:00:58;102642.19;;;10.91;63.94
72285;BME280;60220;53.552;10.092;2023-05-19T05:03:24;102641.84;;;10.72;63.81
72285;BME280;60220;53.552;10.092;2023-05-19T05:05:55;102634.97;;;10.79;63.64
72285;BME280;60220;53.552;10.092;2023-05-19T05:08:22;102636.81;;;10.33;64.38
72285;BME280;60220;53.552;10.092;2023-05-19T05:10:50;102637.22;;;11.12;63.16
72285;BME280;60220;53.552;10.092;2023-05-19T05:13:20;102638.38;;;10.73;64.24
72285;BME280;60220;53.552;10.092;2023-05-19T05:15:47;102641.00;;;10.73;64.22
72285;BME280;60220;53.552;10.092;2023-05-19T05:18:16;102639.00;;;11.13;63.20
72285;BME280;60220;53.552;10.092;2023-05-19T05:20:44;102647.13;;;10.72;64.42
72285;BME280;60220;53.552;10.092;2023-05-19T05:23:13;102640.34;;;10.87;64.14
72285;BME280;60220;53.552;10.092;2023-05-19T05:25:41;102641.94;;;11.36;63.84
72285;BME280;60220;53.552;10.092;2023-05-19T05:28:09;102642.78;;;11.30;63.25
72285;BME280;60220;53.552;10.092;2023-05-19T05:30:38;102642.22;;;11.54;61.42
72285;BME280;60220;53.552;10.092;2023-05-19T05:33:07;102647.63;;;11.06;63.40
72285;BME280;60220;53.552;10.092;2023-05-19T05:35:34;102634.31;;;11.52;62.19
72285;BME280;60220;53.552;10.092;2023-05-19T05:38:03;102639.13;;;11.84;61.73
72285;BME280;60220;53.552;10.092;2023-05-19T05:40:32;102633.94;;;11.90;60.87
72285;BME280;60220;53.552;10.092;2023-05-19T05:42:58;102633.41;;;12.21;60.95
72285;BME280;60220;53.552;10.092;2023-05-19T05:45:25;102629.34;;;12.57;60.27
72285;BME280;60220;53.552;10.092;2023-05-19T05:47:52;102631.31;;;12.79;58.72
72285;BME280;60220;53.552;10.092;2023-05-19T05:50:19;102633.38;;;12.18;60.77
72285;BME280;60220;53.552;10.092;2023-05-19T05:52:49;102640.75;;;12.52;59.49
72285;BME280;60220;53.552;10.092;2023-05-19T05:55:17;102644.41;;;12.70;59.11
72285;BME280;60220;53.552;10.092;2023-05-19T05:57:45;102633.75;;;12.58;58.20
72285;BME280;60220;53.552;10.092;2023-05-19T06:00:13;102644.25;;;12.50;58.69
72285;BME280;60220;53.552;10.092;2023-05-19T06:02:41;102639.31;;;12.89;57.84
72285;BME280;60220;53.552;10.092;2023-05-19T06:05:10;102633.44;;;13.27;56.68
72285;BME280;60220;53.552;10.092;2023-05-19T06:07:38;102635.31;;;13.48;55.98
72285;BME280;60220;53.552;10.092;2023-05-19T06:10:05;102651.84;;;13.18;56.71
72285;BME280;60220;53.552;10.092;2023-05-19T06:12:33;102648.34;;;13.22;56.29
72285;BME280;60220;53.552;10.092;2023-05-19T06:15:02;102640.66;;;13.60;55.28
72285;BME280;60220;53.552;10.092;2023-05-19T06:17:28;102649.25;;;13.24;56.90
72285;BME280;60220;53.552;10.092;2023-05-19T06:19:55;102648.44;;;13.40;56.11
72285;BME280;60220;53.552;10.092;2023-05-19T06:22:24;102647.69;;;13.59;55.55
72285;BME280;60220;53.552;10.092;2023-05-19T06:24:52;102646.63;;;13.27;56.46
72285;BME280;60220;53.552;10.092;2023-05-19T06:27:18;102654.53;;;13.24;56.50
72285;BME280;60220;53.552;10.092;2023-05-19T06:29:47;102642.47;;;13.71;54.34
72285;BME280;60220;53.552;10.092;2023-05-19T06:32:17;102655.56;;;13.49;56.07
72285;BME280;60220;53.552;10.092;2023-05-19T06:34:44;102648.41;;;13.31;54.30
72285;BME280;60220;53.552;10.092;2023-05-19T06:37:10;102651.88;;;13.25;55.09
72285;BME280;60220;53.552;10.092;2023-05-19T06:39:39;102641.19;;;13.09;55.21
72285;BME280;60220;53.552;10.092;2023-05-19T06:42:05;102645.84;;;13.46;55.11
72285;BME280;60220;53.552;10.092;2023-05-19T06:44:34;102639.06;;;14.03;52.83
72285;BME280;60220;53.552;10.092;2023-05-19T06:47:01;102640.78;;;13.96;52.78
72285;BME280;60220;53.552;10.092;2023-05-19T06:49:29;102639.09;;;14.18;53.10
72285;BME280;60220;53.552;10.092;2023-05-19T06:51:56;102638.22;;;14.20;52.15
72285;BME280;60220;53.552;10.092;2023-05-19T06:54:25;102636.47;;;14.26;52.86
72285;BME280;60220;53.552;10.092;2023-05-19T06:56:51;102640.06;;;14.94;52.03
72285;BME280;60220;53.552;10.092;2023-05-19T06:59:18;102641.72;;;15.50;49.66
72285;BME280;60220;53.552;10.092;2023-05-19T07:01:48;102652.38;;;15.27;50.45
72285;BME280;60220;53.552;10.092;2023-05-19T07:04:17;102644.47;;;15.12;50.18
72285;BME280;60220;53.552;10.092;2023-05-19T07:06:48;102638.88;;;16.08;48.45
72285;BME280;60220;53.552;10.092;2023-05-19T07:09:15;102641.63;;;15.80;48.19
72285;BME280;60220;53.552;10.092;2023-05-19T07:11:41;102641.50;;;16.08;47.31
72285;BME280;60220;53.552;10.092;2023-05-19T07:14:15;102648.72;;;15.75;47.78
72285;BME280;60220;53.552;10.092;2023-05-19T07:16:43;102648.84;;;15.22;48.74
72285;BME280;60220;53.552;10.092;2023-05-19T07:19:10;102647.16;;;14.74;49.87
72285;BME280;60220;53.552;10.092;2023-05-19T07:21:37;102647.91;;;15.49;48.90
72285;BME280;60220;53.552;10.092;2023-05-19T07:24:05;102643.34;;;15.90;47.84
72285;BME280;60220;53.552;10.092;2023-05-19T07:26:34;102639.84;;;15.87;46.92
72285;BME280;60220;53.552;10.092;2023-05-19T07:29:01;102640.63;;;16.06;46.06
72285;BME280;60220;53.552;10.092;2023-05-19T07:31:28;102642.03;;;16.64;45.47
72285;BME280;60220;53.552;10.092;2023-05-19T07:33:55;102640.31;;;16.57;45.72
72285;BME280;60220;53.552;10.092;2023-05-19T07:36:21;102648.84;;;16.96;45.81
72285;BME280;60220;53.552;10.092;2023-05-19T07:38:48;102646.38;;;16.74;46.11
72285;BME280;60220;53.552;10.092;2023-05-19T07:41:16;102645.94;;;16.09;46.97
72285;BME280;60220;53.552;10.092;2023-05-19T07:43:45;102644.81;;;16.43;45.61
72285;BME280;60220;53.552;10.092;2023-05-19T07:46:12;102644.16;;;16.08;47.78
72285;BME280;60220;53.552;10.092;2023-05-19T07:48:38;102641.06;;;16.74;45.37
72285;BME280;60220;53.552;10.092;2023-05-19T07:51:07;102644.31;;;17.07;44.57
72285;BME280;60220;53.552;10.092;2023-05-19T07:53:34;102646.16;;;17.83;43.17
72285;BME280;60220;53.552;10.092;2023-05-19T07:56:01;102642.63;;;17.81;43.10
72285;BME280;60220;53.552;10.092;2023-05-19T07:58:31;102640.63;;;17.20;44.67
72285;BME280;60220;53.552;10.092;2023-05-19T08:00:58;102642.19;;;17.42;44.43
72285;BME280;60220;53.552;10.092;2023-05-19T08:03:25;102636.16;;;17.23;44.14
72285;BME280;60220;53.552;10.092;2023-05-19T08:05:55;102633.72;;;17.83;44.14
72285;BME280;60220;53.552;10.092;2023-05-19T08:08:24;102621.66;;;17.56;42.56
72285;BME280;60220;53.552;10.092;2023-05-19T08:10:51;102624.28;;;17.62;43.31
72285;BME280;60220;53.552;10.092;2023-05-19T08:13:18;102634.53;;;18.51;42.65
72285;BME280;60220;53.552;10.092;2023-05-19T08:15:46;102639.66;;;19.15;41.03
72285;BME280;60220;53.552;10.092;2023-05-19T08:18:15;102633.25;;;18.78;41.62
72285;BME280;60220;53.552;10.092;2023-05-19T08:20:44;102628.31;;;19.06;42.19
72285;BME280;60220;53.552;10.092;2023-05-19T08:23:10;102629.47;;;18.91;41.68
72285;BME280;60220;53.552;10.092;2023-05-19T08:25:37;102633.53;;;18.60;41.24
72285;BME280;60220;53.552;10.092;2023-05-19T08:28:04;102632.84;;;19.91;38.87
72285;BME280;60220;53.552;10.092;2023-05-19T08:30:31;102625.47;;;19.15;39.72
72285;BME280;60220;53.552;10.092;2023-05-19T08:33:02;102628.94;;;19.18;39.78
72285;BME280;60220;53.552;10.092;2023-05-19T08:35:28;102635.13;;;19.20;37.86
72285;BME280;60220;53.552;10.092;2023-05-19T08:37:55;102627.38;;;17.98;39.64
72285;BME280;60220;53.552;10.092;2023-05-19T08:40:22;102626.56;;;18.49;38.58
72285;BME280;60220;53.552;10.092;2023-05-19T08:42:48;102627.81;;;18.84;38.85
72285;BME280;60220;53.552;10.092;2023-05-19T08:45:15;102628.66;;;18.29;38.70
72285;BME280;60220;53.552;10.092;2023-05-19T08:47:45;102622.38;;;18.33;39.64
72285;BME280;60220;53.552;10.092;2023-05-19T08:50:18;102619.09;;;18.76;40.47
72285;BME280;60220;53.552;10.092;2023-05-19T08:52:51;102617.22;;;18.81;40.07
72285;BME280;60220;53.552;10.092;2023-05-19T08:55:24;102621.25;;;18.49;40.61
72285;BME280;60220;53.552;10.092;2023-05-19T08:57:53;102602.22;;;19.69;39.79
72285;BME280;60220;53.552;10.092;2023-05-19T09:00:22;102610.13;;;18.80;40.29
72285;BME280;60220;53.552;10.092;2023-05-19T09:02:49;102606.19;;;19.48;40.09
72285;BME280;60220;53.552;10.092;2023-05-19T09:05:17;102601.19;;;20.14;38.34
72285;BME280;60220;53.552;10.092;2023-05-19T09:07:44;102594.41;;;19.15;39.95
72285;BME280;60220;53.552;10.092;2023-05-19T09:10:12;102608.91;;;18.45;39.41
72285;BME280;60220;53.552;10.092;2023-05-19T09:12:41;102604.47;;;18.47;41.35
72285;BME280;60220;53.552;10.092;2023-05-19T09:15:10;102603.84;;;19.31;39.02
72285;BME280;60220;53.552;10.092;2023-05-19T09:17:37;102593.63;;;19.10;39.28
72285;BME280;60220;53.552;10.092;2023-05-19T09:20:05;102586.75;;;19.45;39.07
72285;BME280;60220;53.552;10.092;2023-05-19T09:22:41;102593.44;;;19.19;38.90
72285;BME280;60220;53.552;10.092;2023-05-19T09:25:19;102595.97;;;19.25;39.99
72285;BME280;60220;53.552;10.092;2023-05-19T09:27:47;102595.97;;;19.70;37.68
72285;BME280;60220;53.552;10.092;2023-05-19T09:30:15;102587.41;;;19.96;38.47
72285;BME280;60220;53.552;10.092;2023-05-19T09:32:42;102589.00;;;20.03;38.22
72285;BME280;60220;53.552;10.092;2023-05-19T09:35:10;102585.13;;;18.90;38.97
72285;BME280;60220;53.552;10.092;2023-05-19T09:37:42;102589.03;;;18.71;40.08
72285;BME280;60220;53.552;10.092;2023-05-19T09:40:09;102585.66;;;18.60;40.52
72285;BME280;60220;53.552;10.092;2023-05-19T09:42:37;102590.34;;;18.96;39.18
72285;BME280;60220;53.552;10.092;2023-05-19T09:45:05;102593.25;;;18.27;40.88
72285;BME280;60220;53.552;10.092;2023-05-19T09:47:33;102588.03;;;17.55;40.86
72285;BME280;60220;53.552;10.092;2023-05-19T09:50:01;102584.50;;;18.74;39.93
72285;BME280;60220;53.552;10.092;2023-05-19T09:52:28;102586.63;;;18.56;40.04
72285;BME280;60220;53.552;10.092;2023-05-19T09:54:56;102584.31;;;18.85;39.73
72285;BME280;60220;53.552;10.092;2023-05-19T09:57:25;102587.09;;;18.79;39.96
72285;BME280;60220;53.552;10.092;2023-05-19T09:59:56;102580.56;;;18.44;39.21
72285;BME280;60220;53.552;10.092;2023-05-19T10:02:24;102573.03;;;18.17;39.89
72285;BME280;60220;53.552;10.092;2023-05-19T10:04:51;102589.28;;;18.56;39.18
72285;BME280;60220;53.552;10.092;2023-05-19T10:07:22;102569.75;;;19.06;38.66
72285;BME280;60220;53.552;10.092;2023-05-19T10:09:50;102576.78;;;18.59;39.46
72285;BME280;60220;53.552;10.092;2023-05-19T10:12:23;102566.66;;;18.27;39.65
72285;BME280;60220;53.552;10.092;2023-05-19T10:14:53;102566.78;;;18.18;39.76
72285;BME280;60220;53.552;10.092;2023-05-19T10:17:21;102552.47;;;18.82;39.30
72285;BME280;60220;53.552;10.092;2023-05-19T10:19:51;102565.19;;;18.63;40.03
72285;BME280;60220;53.552;10.092;2023-05-19T10:22:21;102548.63;;;18.97;39.36
72285;BME280;60220;53.552;10.092;2023-05-19T10:24:47;102553.69;;;18.63;39.43
72285;BME280;60220;53.552;10.092;2023-05-19T10:27:15;102552.41;;;18.31;39.69
72285;BME280;60220;53.552;10.092;2023-05-19T10:29:48;102543.72;;;18.20;40.63
72285;BME280;60220;53.552;10.092;2023-05-19T10:32:18;102545.22;;;17.83;41.32
72285;BME280;60220;53.552;10.092;2023-05-19T10:35:03;102535.47;;;17.82;40.95
72285;BME280;60220;53.552;10.092;2023-05-19T10:37:41;102525.16;;;18.71;39.97
72285;BME280;60220;53.552;10.092;2023-05-19T10:40:13;102530.41;;;18.74;39.82
72285;BME280;60220;53.552;10.092;2023-05-19T10:42:55;102533.84;;;19.26;38.27
72285;BME280;60220;53.552;10.092;2023-05-19T10:45:27;102530.38;;;19.64;37.11
72285;BME280;60220;53.552;10.092;2023-05-19T10:47:55;102518.38;;;19.02;38.06
72285;BME280;60220;53.552;10.092;2023-05-19T10:50:22;102526.38;;;18.99;37.01
72285;BME280;60220;53.552;10.092;2023-05-19T10:52:52;102533.31;;;18.62;36.63
72285;BME280;60220;53.552;10.092;2023-05-19T10:55:44;102531.97;;;18.87;37.96
72285;BME280;60220;53.552;10.092;2023-05-19T10:58:11;102530.94;;;18.94;37.41
72285;BME280;60220;53.552;10.092;2023-05-19T11:00:39;102526.44;;;18.98;38.27
72285;BME280;60220;53.552;10.092;2023-05-19T11:03:12;102515.69;;;19.44;37.04
72285;BME280;60220;53.552;10.092;2023-05-19T11:05:39;102517.38;;;19.51;36.83
72285;BME280;60220;53.552;10.092;2023-05-19T11:08:05;102522.56;;;19.57;37.27
72285;BME280;60220;53.552;10.092;2023-05-19T11:10:33;102519.75;;;19.63;36.42
72285;BME280;60220;53.552;10.092;2023-05-19T11:12:59;102513.63;;;19.16;38.48
72285;BME280;60220;53.552;10.092;2023-05-19T11:15:26;102512.00;;;19.09;37.72
72285;BME280;60220;53.552;10.092;2023-05-19T11:17:54;102510.94;;;19.61;38.29
72285;BME280;60220;53.552;10.092;2023-05-19T11:20:22;102517.41;;;19.48;36.77
72285;BME280;60220;53.552;10.092;2023-05-19T11:23:03;102510.69;;;19.28;37.15
72285;BME280;60220;53.552;10.092;2023-05-19T11:25:41;102505.09;;;18.99;37.05
72285;BME280;60220;53.552;10.092;2023-05-19T11:28:09;102511.06;;;19.12;37.08
72285;BME280;60220;53.552;10.092;2023-05-19T11:30:37;102500.75;;;18.95;36.50
72285;BME280;60220;53.552;10.092;2023-05-19T11:33:06;102499.16;;;18.37;37.48
72285;BME280;60220;53.552;10.092;2023-05-19T11:35:34;102492.66;;;19.01;36.83
72285;BME280;60220;53.552;10.092;2023-05-19T11:38:00;102493.94;;;19.66;36.94
72285;BME280;60220;53.552;10.092;2023-05-19T11:40:27;102494.22;;;19.11;34.98
72285;BME280;60220;53.552;10.092;2023-05-19T11:42:54;102497.59;;;19.19;35.51
72285;BME280;60220;53.552;10.092;2023-05-19T11:45:23;102496.28;;;18.97;36.14
72285;BME280;60220;53.552;10.092;2023-05-19T11:47:50;102488.81;;;19.14;36.58
72285;BME280;60220;53.552;10.092;2023-05-19T11:50:21;102489.41;;;19.28;36.80
72285;BME280;60220;53.552;10.092;2023-05-19T11:52:51;102480.13;;;19.48;36.33
72285;BME280;60220;53.552;10.092;2023-05-19T11:55:18;102497.50;;;18.30;38.25
72285;BME280;60220;53.552;10.092;2023-05-19T11:57:56;102498.81;;;19.46;36.43
72285;BME280;60220;53.552;10.092;2023-05-19T12:00:23;102491.13;;;19.32;36.47
72285;BME280;60220;53.552;10.092;2023-05-19T12:02:52;102480.47;;;19.31;35.47
72285;BME280;60220;53.552;10.092;2023-05-19T12:05:21;102493.41;;;19.51;36.92
72285;BME280;60220;53.552;10.092;2023-05-19T12:07:51;102492.13;;;19.25;36.73
72285;BME280;60220;53.552;10.092;2023-05-19T12:10:21;102488.22;;;19.00;36.89
72285;BME280;60220;53.552;10.092;2023-05-19T12:12:50;102487.16;;;19.52;36.58
72285;BME280;60220;53.552;10.092;2023-05-19T12:15:18;102479.78;;;20.01;36.85
72285;BME280;60220;53.552;10.092;2023-05-19T12:17:45;102485.28;;;20.29;35.95
72285;BME280;60220;53.552;10.092;2023-05-19T12:20:14;102477.63;;;20.15;36.32
72285;BME280;60220;53.552;10.092;2023-05-19T12:22:42;102484.34;;;19.58;35.21
72285;BME280;60220;53.552;10.092;2023-05-19T12:25:09;102479.72;;;19.67;36.50
72285;BME280;60220;53.552;10.092;2023-05-19T12:27:36;102473.28;;;19.76;37.00
72285;BME280;60220;53.552;10.092;2023-05-19T12:30:03;102465.22;;;18.98;36.24
72285;BME280;60220;53.552;10.092;2023-05-19T12:32:33;102466.81;;;19.86;36.31
72285;BME280;60220;53.552;10.092;2023-05-19T12:35:01;102470.06;;;19.62;36.94
72285;BME280;60220;53.552;10.092;2023-05-19T12:37:28;102468.75;;;19.80;35.96
72285;BME280;60220;53.552;10.092;2023-05-19T12:39:59;102462.50;;;19.41;36.85
72285;BME280;60220;53.552;10.092;2023-05-19T12:42:26;102468.88;;;19.33;36.95
72285;BME280;60220;53.552;10.092;2023-05-19T12:44:56;102465.38;;;19.31;36.91
72285;BME280;60220;53.552;10.092;2023-05-19T12:47:28;102463.72;;;19.27;37.16
72285;BME280;60220;53.552;10.092;2023-05-19T12:50:00;102466.19;;;19.75;36.75
72285;BME280;60220;53.552;10.092;2023-05-19T12:52:28;102452.44;;;19.56;36.44